sensor_id;sensor_type;location;lat;lon;timestamp;temperature;humidity
36548;DHT22;22551;52.206;4.856;2023-03-25T00:04:10;9.70;99.90
36548;DHT22;22551;52.206;4.856;2023-03-25T00:09:14;9.60;99.90
36548;DHT22;22551;52.206;4.856;2023-03-25T00:14:16;9.50;99.90
36548;DHT22;22551;52.206;4.856;2023-03-25T00:19:19;9.50;99.90
36548;DHT22;22551;52.206;4.856;2023-03-25T00:24:23;9.50;99.90
36548;DHT22;22551;52.206;4.856;2023-03-25T00:29:25;9.60;99.90
36548;DHT22;22551;52.206;4.856;2023-03-25T00:34:27;9.50;99.90
36548;DHT22;22551;52.206;4.856;2023-03-25T00:39:31;9.50;99.90
36548;DHT22;22551;52.206;4.856;2023-03-25T00:44:33;9.60;99.90
36548;DHT22;22551;52.206;4.856;2023-03-25T00:49:36;9.60;99.90
36548;DHT22;22551;52.206;4.856;2023-03-25T00:54:39;9.60;99.90
36548;DHT22;22551;52.206;4.856;2023-03-25T00:59:42;9.60;99.90
36548;DHT22;22551;52.206;4.856;2023-03-25T01:04:44;9.60;99.90
36548;DHT22;22551;52.206;4.856;2023-03-25T01:09:47;9.60;99.90
36548;DHT22;22551;52.206;4.856;2023-03-25T01:14:50;9.50;99.90
36548;DHT22;22551;52.206;4.856;2023-03-25T01:19:53;9.50;99.90
36548;DHT22;22551;52.206;4.856;2023-03-25T01:24:56;9.50;99.90
36548;DHT22;22551;52.206;4.856;2023-03-25T01:29:59;9.60;99.90
36548;DHT22;22551;52.206;4.856;2023-03-25T01:35:01;9.60;99.90
36548;DHT22;22551;52.206;4.856;2023-03-25T01:40:07;9.50;99.90
36548;DHT22;22551;52.206;4.856;2023-03-25T01:45:22;9.50;99.90
36548;DHT22;22551;52.206;4.856;2023-03-25T01:50:26;9.40;99.90
36548;DHT22;22551;52.206;4.856;2023-03-25T01:55:33;9.40;99.90
36548;DHT22;22551;52.206;4.856;2023-03-25T02:00:36;9.30;99.90
36548;DHT22;22551;52.206;4.856;2023-03-25T02:05:45;9.30;99.90
36548;DHT22;22551;52.206;4.856;2023-03-25T02:10:51;9.30;99.90
36548;DHT22;22551;52.206;4.856;2023-03-25T02:16:12;9.40;99.90
36548;DHT22;22551;52.206;4.856;2023-03-25T02:21:47;9.30;99.90
36548;DHT22;22551;52.206;4.856;2023-03-25T02:27:19;9.40;99.90
36548;DHT22;22551;52.206;4.856;2023-03-25T02:32:43;9.30;99.90
36548;DHT22;22551;52.206;4.856;2023-03-25T02:38:22;9.30;99.90
36548;DHT22;22551;52.206;4.856;2023-03-25T02:43:30;9.30;99.90
36548;DHT22;22551;52.206;4.856;2023-03-25T02:48:36;9.30;99.90
36548;DHT22;22551;52.206;4.856;2023-03-25T02:53:45;9.40;99.90
36548;DHT22;22551;52.206;4.856;2023-03-25T02:58:49;9.40;99.90
36548;DHT22;22551;52.206;4.856;2023-03-25T03:03:55;9.40;99.90
36548;DHT22;22551;52.206;4.856;2023-03-25T03:09:08;9.40;99.90
36548;DHT22;22551;52.206;4.856;2023-03-25T03:14:32;9.40;99.90
36548;DHT22;22551;52.206;4.856;2023-03-25T03:19:42;9.40;99.90
36548;DHT22;22551;52.206;4.856;2023-03-25T03:24:50;9.40;99.90
36548;DHT22;22551;52.206;4.856;2023-03-25T03:30:04;9.40;99.90
36548;DHT22;22551;52.206;4.856;2023-03-25T03:35:12;9.50;99.90
36548;DHT22;22551;52.206;4.856;2023-03-25T03:40:21;9.50;99.90
36548;DHT22;22551;52.206;4.856;2023-03-25T03:45:28;9.50;99.90
36548;DHT22;22551;52.206;4.856;2023-03-25T03:50:37;9.50;99.90
36548;DHT22;22551;52.206;4.856;2023-03-25T03:55:46;9.40;99.90
36548;DHT22;22551;52.206;4.856;2023-03-25T04:00:55;9.30;99.90
36548;DHT22;22551;52.206;4.856;2023-03-25T04:06:07;9.20;99.90
36548;DHT22;22551;52.206;4.856;2023-03-25T04:11:19;9.10;99.90
36548;DHT22;22551;52.206;4.856;2023-03-25T04:16:23;9.20;99.90
36548;DHT22;22551;52.206;4.856;2023-03-25T04:21:25;9.10;99.90
36548;DHT22;22551;52.206;4.856;2023-03-25T04:26:30;9.00;99.90
36548;DHT22;22551;52.206;4.856;2023-03-25T04:31:37;9.00;99.90
36548;DHT22;22551;52.206;4.856;2023-03-25T04:36:45;9.00;99.90
36548;DHT22;22551;52.206;4.856;2023-03-25T04:41:52;9.00;99.90
36548;DHT22;22551;52.206;4.856;2023-03-25T04:46:54;8.90;99.90
36548;DHT22;22551;52.206;4.856;2023-03-25T04:51:56;8.90;99.90
36548;DHT22;22551;52.206;4.856;2023-03-25T04:57:03;8.90;99.90
36548;DHT22;22551;52.206;4.856;2023-03-25T05:02:05;9.00;99.90
36548;DHT22;22551;52.206;4.856;2023-03-25T05:07:12;9.00;99.90
36548;DHT22;22551;52.206;4.856;2023-03-25T05:12:17;8.90;99.90
36548;DHT22;22551;52.206;4.856;2023-03-25T05:17:19;8.80;99.90
36548;DHT22;22551;52.206;4.856;2023-03-25T05:22:21;8.80;99.90
36548;DHT22;22551;52.206;4.856;2023-03-25T05:27:25;8.70;99.90
36548;DHT22;22551;52.206;4.856;2023-03-25T05:32:29;8.70;99.90
36548;DHT22;22551;52.206;4.856;2023-03-25T05:37:32;8.70;99.90
36548;DHT22;22551;52.206;4.856;2023-03-25T05:42:36;8.70;99.90
36548;DHT22;22551;52.206;4.856;2023-03-25T05:47:38;8.80;99.90
36548;DHT22;22551;52.206;4.856;2023-03-25T05:52:40;8.80;99.90
36548;DHT22;22551;52.206;4.856;2023-03-25T05:57:44;8.80;99.90
36548;DHT22;22551;52.206;4.856;2023-03-25T06:02:47;8.90;99.90
36548;DHT22;22551;52.206;4.856;2023-03-25T06:07:51;8.90;99.90
36548;DHT22;22551;52.206;4.856;2023-03-25T06:12:56;8.90;99.90
36548;DHT22;22551;52.206;4.856;2023-03-25T06:17:59;8.80;99.90
36548;DHT22;22551;52.206;4.856;2023-03-25T06:23:01;8.70;99.90
36548;DHT22;22551;52.206;4.856;2023-03-25T06:28:05;8.60;99.90
36548;DHT22;22551;52.206;4.856;2023-03-25T06:33:07;8.60;99.90
36548;DHT22;22551;52.206;4.856;2023-03-25T06:38:11;8.60;99.90
36548;DHT22;22551;52.206;4.856;2023-03-25T06:43:15;8.70;99.90
36548;DHT22;22551;52.206;4.856;2023-03-25T06:48:17;8.70;99.90
36548;DHT22;22551;52.206;4.856;2023-03-25T06:53:19;8.80;99.90
36548;DHT22;22551;52.206;4.856;2023-03-25T06:58:23;8.80;99.90
36548;DHT22;22551;52.206;4.856;2023-03-25T07:03:35;9.00;99.90
36548;DHT22;22551;52.206;4.856;2023-03-25T07:08:38;9.00;99.90
36548;DHT22;22551;52.206;4.856;2023-03-25T07:13:42;9.10;99.90
36548;DHT22;22551;52.206;4.856;2023-03-25T07:18:48;9.20;99.90
36548;DHT22;22551;52.206;4.856;2023-03-25T07:23:51;9.30;99.90
36548;DHT22;22551;52.206;4.856;2023-03-25T07:28:55;9.30;99.90
36548;DHT22;22551;52.206;4.856;2023-03-25T07:33:58;9.30;99.90
36548;DHT22;22551;52.206;4.856;2023-03-25T07:39:02;9.40;99.90
36548;DHT22;22551;52.206;4.856;2023-03-25T07:44:07;9.50;99.90
36548;DHT22;22551;52.206;4.856;2023-03-25T07:49:09;9.50;99.90
36548;DHT22;22551;52.206;4.856;2023-03-25T07:54:11;9.60;99.90
36548;DHT22;22551;52.206;4.856;2023-03-25T07:59:15;9.70;99.90
36548;DHT22;22551;52.206;4.856;2023-03-25T08:04:18;9.70;99.90
36548;DHT22;22551;52.206;4.856;2023-03-25T08:09:21;9.70;99.90
36548;DHT22;22551;52.206;4.856;2023-03-25T08:14:25;9.70;99.90
36548;DHT22;22551;52.206;4.856;2023-03-25T08:19:28;9.80;99.90
36548;DHT22;22551;52.206;4.856;2023-03-25T08:24:31;9.80;99.90
36548;DHT22;22551;52.206;4.856;2023-03-25T08:29:34;9.80;99.90
36548;DHT22;22551;52.206;4.856;2023-03-25T08:34:38;9.90;99.90
36548;DHT22;22551;52.206;4.856;2023-03-25T08:39:40;9.90;99.90
36548;DHT22;22551;52.206;4.856;2023-03-25T08:50:22;10.30;99.90
36548;DHT22;22551;52.206;4.856;2023-03-25T08:55:25;10.40;99.90
36548;DHT22;22551;52.206;4.856;2023-03-25T09:00:29;10.50;99.90
36548;DHT22;22551;52.206;4.856;2023-03-25T09:05:32;10.60;99.90
36548;DHT22;22551;52.206;4.856;2023-03-25T09:10:34;10.80;99.90
36548;DHT22;22551;52.206;4.856;2023-03-25T09:15:38;10.80;99.90
36548;DHT22;22551;52.206;4.856;2023-03-25T09:20:40;10.80;99.90
36548;DHT22;22551;52.206;4.856;2023-03-25T09:25:43;10.90;99.90
36548;DHT22;22551;52.206;4.856;2023-03-25T09:30:47;11.00;99.90
36548;DHT22;22551;52.206;4.856;2023-03-25T09:35:51;11.10;99.90
36548;DHT22;22551;52.206;4.856;2023-03-25T09:41:31;11.20;99.90
36548;DHT22;22551;52.206;4.856;2023-03-25T09:46:49;11.50;99.90
36548;DHT22;22551;52.206;4.856;2023-03-25T09:51:52;11.70;99.90
36548;DHT22;22551;52.206;4.856;2023-03-25T09:56:58;11.60;99.90
36548;DHT22;22551;52.206;4.856;2023-03-25T10:02:11;11.40;99.90
36548;DHT22;22551;52.206;4.856;2023-03-25T10:07:30;11.60;99.90
36548;DHT22;22551;52.206;4.856;2023-03-25T10:12:48;11.80;99.90
36548;DHT22;22551;52.206;4.856;2023-03-25T10:18:10;11.90;99.90
36548;DHT22;22551;52.206;4.856;2023-03-25T10:23:25;12.10;99.90
36548;DHT22;22551;52.206;4.856;2023-03-25T10:28:33;12.10;99.90
36548;DHT22;22551;52.206;4.856;2023-03-25T10:33:43;12.20;99.90
36548;DHT22;22551;52.206;4.856;2023-03-25T10:38:53;12.30;99.90
36548;DHT22;22551;52.206;4.856;2023-03-25T10:43:55;12.80;99.90
36548;DHT22;22551;52.206;4.856;2023-03-25T10:48:59;12.90;99.90
36548;DHT22;22551;52.206;4.856;2023-03-25T10:54:01;12.60;99.90
36548;DHT22;22551;52.206;4.856;2023-03-25T10:59:09;12.40;99.90
36548;DHT22;22551;52.206;4.856;2023-03-25T11:04:20;12.50;99.90
36548;DHT22;22551;52.206;4.856;2023-03-25T11:09:24;12.90;99.90
36548;DHT22;22551;52.206;4.856;2023-03-25T11:14:30;13.10;99.90
36548;DHT22;22551;52.206;4.856;2023-03-25T11:19:41;13.10;99.90
36548;DHT22;22551;52.206;4.856;2023-03-25T11:24:48;13.10;99.90
36548;DHT22;22551;52.206;4.856;2023-03-25T11:29:55;12.90;99.90
36548;DHT22;22551;52.206;4.856;2023-03-25T11:35:06;12.90;99.90
36548;DHT22;22551;52.206;4.856;2023-03-25T11:40:17;12.70;99.90
36548;DHT22;22551;52.206;4.856;2023-03-25T11:45:22;12.80;99.90
36548;DHT22;22551;52.206;4.856;2023-03-25T11:50:28;12.60;99.90
36548;DHT22;22551;52.206;4.856;2023-03-25T11:55:35;12.60;99.90
36548;DHT22;22551;52.206;4.856;2023-03-25T12:00:47;12.90;99.90
36548;DHT22;22551;52.206;4.856;2023-03-25T12:05:59;13.10;99.90
36548;DHT22;22551;52.206;4.856;2023-03-25T12:11:05;12.90;99.90
36548;DHT22;22551;52.206;4.856;2023-03-25T12:16:19;12.80;99.90
36548;DHT22;22551;52.206;4.856;2023-03-25T12:21:40;13.00;99.90
36548;DHT22;22551;52.206;4.856;2023-03-25T12:26:53;12.80;99.90
36548;DHT22;22551;52.206;4.856;2023-03-25T12:32:14;13.20;99.90
36548;DHT22;22551;52.206;4.856;2023-03-25T12:37:29;13.70;99.90
36548;DHT22;22551;52.206;4.856;2023-03-25T12:42:40;13.60;99.90
36548;DHT22;22551;52.206;4.856;2023-03-25T12:47:53;14.20;99.90
36548;DHT22;22551;52.206;4.856;2023-03-25T12:53:08;14.10;99.90
36548;DHT22;22551;52.206;4.856;2023-03-25T12:58:42;14.40;99.90
36548;DHT22;22551;52.206;4.856;2023-03-25T13:04:08;14.40;99.90
36548;DHT22;22551;52.206;4.856;2023-03-25T13:09:24;14.30;99.90
36548;DHT22;22551;52.206;4.856;2023-03-25T13:14:32;14.10;99.90
36548;DHT22;22551;52.206;4.856;2023-03-25T13:19:37;14.10;99.90
36548;DHT22;22551;52.206;4.856;2023-03-25T13:24:47;14.00;99.90
36548;DHT22;22551;52.206;4.856;2023-03-25T13:29:54;13.00;99.90
36548;DHT22;22551;52.206;4.856;2023-03-25T13:35:01;12.90;99.90
36548;DHT22;22551;52.206;4.856;2023-03-25T13:40:21;12.90;99.90
36548;DHT22;22551;52.206;4.856;2023-03-25T13:45:28;12.90;99.90
36548;DHT22;22551;52.206;4.856;2023-03-25T13:50:33;12.20;99.90
36548;DHT22;22551;52.206;4.856;2023-03-25T13:55:41;11.70;99.90
36548;DHT22;22551;52.206;4.856;2023-03-25T14:01:08;12.00;99.90
36548;DHT22;22551;52.206;4.856;2023-03-25T14:12:14;12.90;99.90
36548;DHT22;22551;52.206;4.856;2023-03-25T14:17:18;13.00;99.90
36548;DHT22;22551;52.206;4.856;2023-03-25T14:22:26;13.40;99.90
36548;DHT22;22551;52.206;4.856;2023-03-25T14:27:31;12.90;99.90
36548;DHT22;22551;52.206;4.856;2023-03-25T14:32:35;12.90;99.90
36548;DHT22;22551;52.206;4.856;2023-03-25T14:37:38;12.80;99.90
36548;DHT22;22551;52.206;4.856;2023-03-25T14:42:56;12.40;99.90
36548;DHT22;22551;52.206;4.856;2023-03-25T14:48:00;12.30;99.90
36548;DHT22;22551;52.206;4.856;2023-03-25T14:53:03;12.30;99.90
36548;DHT22;22551;52.206;4.856;2023-03-25T14:58:16;12.00;99.90
36548;DHT22;22551;52.206;4.856;2023-03-25T15:03:20;9.90;99.90
36548;DHT22;22551;52.206;4.856;2023-03-25T15:08:33;9.10;99.90
36548;DHT22;22551;52.206;4.856;2023-03-25T15:13:41;9.10;99.90
36548;DHT22;22551;52.206;4.856;2023-03-25T15:19:06;8.90;99.90
36548;DHT22;22551;52.206;4.856;2023-03-25T15:24:11;8.90;99.90
36548;DHT22;22551;52.206;4.856;2023-03-25T15:29:43;8.80;99.90
36548;DHT22;22551;52.206;4.856;2023-03-25T15:35:07;8.70;99.90
36548;DHT22;22551;52.206;4.856;2023-03-25T15:40:28;8.80;99.90
36548;DHT22;22551;52.206;4.856;2023-03-25T15:45:57;8.90;99.90
36548;DHT22;22551;52.206;4.856;2023-03-25T15:56:43;9.20;99.90
36548;DHT22;22551;52.206;4.856;2023-03-25T16:01:48;9.20;99.90
36548;DHT22;22551;52.206;4.856;2023-03-25T16:06:55;9.20;99.90
36548;DHT22;22551;52.206;4.856;2023-03-25T16:11:58;9.20;99.90
36548;DHT22;22551;52.206;4.856;2023-03-25T16:17:04;8.90;99.90
36548;DHT22;22551;52.206;4.856;2023-03-25T16:22:16;9.00;99.90
36548;DHT22;22551;52.206;4.856;2023-03-25T16:27:23;9.00;99.90
36548;DHT22;22551;52.206;4.856;2023-03-25T16:32:33;9.00;99.90
36548;DHT22;22551;52.206;4.856;2023-03-25T16:37:35;9.20;99.90
36548;DHT22;22551;52.206;4.856;2023-03-25T16:42:40;9.40;99.90
36548;DHT22;22551;52.206;4.856;2023-03-25T16:47:43;9.40;99.90
36548;DHT22;22551;52.206;4.856;2023-03-25T16:52:50;9.40;99.90
36548;DHT22;22551;52.206;4.856;2023-03-25T16:57:52;9.40;99.90
36548;DHT22;22551;52.206;4.856;2023-03-25T17:02:58;9.40;99.90
36548;DHT22;22551;52.206;4.856;2023-03-25T17:08:02;9.40;99.90
36548;DHT22;22551;52.206;4.856;2023-03-25T17:13:08;9.40;99.90
36548;DHT22;22551;52.206;4.856;2023-03-25T17:18:14;9.40;99.90
36548;DHT22;22551;52.206;4.856;2023-03-25T17:23:20;9.40;99.90
36548;DHT22;22551;52.206;4.856;2023-03-25T17:28:32;9.40;99.90
36548;DHT22;22551;52.206;4.856;2023-03-25T17:33:46;9.40;99.90
36548;DHT22;22551;52.206;4.856;2023-03-25T17:38:51;9.30;99.90
36548;DHT22;22551;52.206;4.856;2023-03-25T17:43:56;9.10;99.90
36548;DHT22;22551;52.206;4.856;2023-03-25T17:49:00;9.00;99.90
36548;DHT22;22551;52.206;4.856;2023-03-25T17:54:02;9.00;99.90
36548;DHT22;22551;52.206;4.856;2023-03-25T17:59:06;8.90;99.90
36548;DHT22;22551;52.206;4.856;2023-03-25T18:04:16;9.00;99.90
36548;DHT22;22551;52.206;4.856;2023-03-25T18:09:21;8.90;99.90
36548;DHT22;22551;52.206;4.856;2023-03-25T18:14:25;8.70;99.90
36548;DHT22;22551;52.206;4.856;2023-03-25T18:19:29;8.60;99.90
36548;DHT22;22551;52.206;4.856;2023-03-25T18:24:32;8.70;99.90
36548;DHT22;22551;52.206;4.856;2023-03-25T18:29:35;8.70;99.90
36548;DHT22;22551;52.206;4.856;2023-03-25T18:34:40;8.70;99.90
36548;DHT22;22551;52.206;4.856;2023-03-25T18:39:42;8.70;99.90
36548;DHT22;22551;52.206;4.856;2023-03-25T18:44:45;8.80;99.90
36548;DHT22;22551;52.206;4.856;2023-03-25T18:49:49;8.70;99.90
36548;DHT22;22551;52.206;4.856;2023-03-25T18:54:51;8.60;99.90
36548;DHT22;22551;52.206;4.856;2023-03-25T18:59:53;8.60;99.90
36548;DHT22;22551;52.206;4.856;2023-03-25T19:04:57;8.50;99.90
36548;DHT22;22551;52.206;4.856;2023-03-25T19:09:59;8.60;99.90
36548;DHT22;22551;52.206;4.856;2023-03-25T19:15:02;8.50;99.90
36548;DHT22;22551;52.206;4.856;2023-03-25T19:20:07;8.60;99.90
36548;DHT22;22551;52.206;4.856;2023-03-25T19:25:10;8.60;99.90
36548;DHT22;22551;52.206;4.856;2023-03-25T19:30:15;8.60;99.90
36548;DHT22;22551;52.206;4.856;2023-03-25T19:35:20;8.60;99.90
36548;DHT22;22551;52.206;4.856;2023-03-25T19:40:25;8.60;99.90
36548;DHT22;22551;52.206;4.856;2023-03-25T19:45:30;8.60;99.90
36548;DHT22;22551;52.206;4.856;2023-03-25T19:50:34;8.50;99.90
36548;DHT22;22551;52.206;4.856;2023-03-25T19:55:36;8.40;99.90
36548;DHT22;22551;52.206;4.856;2023-03-25T20:00:43;8.30;99.90
36548;DHT22;22551;52.206;4.856;2023-03-25T20:05:46;8.30;99.90
36548;DHT22;22551;52.206;4.856;2023-03-25T20:10:49;8.20;99.90
36548;DHT22;22551;52.206;4.856;2023-03-25T20:15:51;8.20;99.90
36548;DHT22;22551;52.206;4.856;2023-03-25T20:20:55;8.20;99.90
36548;DHT22;22551;52.206;4.856;2023-03-25T20:25:57;8.20;99.90
36548;DHT22;22551;52.206;4.856;2023-03-25T20:30:59;8.20;99.90
36548;DHT22;22551;52.206;4.856;2023-03-25T20:36:03;8.20;99.90
36548;DHT22;22551;52.206;4.856;2023-03-25T20:41:06;8.10;99.90
36548;DHT22;22551;52.206;4.856;2023-03-25T20:46:09;8.10;99.90
36548;DHT22;22551;52.206;4.856;2023-03-25T20:51:15;8.10;99.90
36548;DHT22;22551;52.206;4.856;2023-03-25T20:56:17;8.10;99.90
36548;DHT22;22551;52.206;4.856;2023-03-25T21:01:19;8.10;99.90
36548;DHT22;22551;52.206;4.856;2023-03-25T21:06:24;8.10;99.90
36548;DHT22;22551;52.206;4.856;2023-03-25T21:11:26;8.00;99.90
36548;DHT22;22551;52.206;4.856;2023-03-25T21:16:29;8.00;99.90
36548;DHT22;22551;52.206;4.856;2023-03-25T21:21:34;7.90;99.90
36548;DHT22;22551;52.206;4.856;2023-03-25T21:26:38;7.80;99.90
36548;DHT22;22551;52.206;4.856;2023-03-25T21:31:40;7.80;99.90
36548;DHT22;22551;52.206;4.856;2023-03-25T21:36:43;7.80;99.90
36548;DHT22;22551;52.206;4.856;2023-03-25T21:41:46;7.80;99.90
36548;DHT22;22551;52.206;4.856;2023-03-25T21:46:48;7.70;99.90
36548;DHT22;22551;52.206;4.856;2023-03-25T21:51:53;7.60;99.90
36548;DHT22;22551;52.206;4.856;2023-03-25T21:56:56;7.50;99.90
36548;DHT22;22551;52.206;4.856;2023-03-25T22:02:04;7.40;99.90
36548;DHT22;22551;52.206;4.856;2023-03-25T22:07:09;7.40;99.90
36548;DHT22;22551;52.206;4.856;2023-03-25T22:12:11;7.30;99.90
36548;DHT22;22551;52.206;4.856;2023-03-25T22:17:14;7.30;99.90
36548;DHT22;22551;52.206;4.856;2023-03-25T22:22:19;7.30;99.90
36548;DHT22;22551;52.206;4.856;2023-03-25T22:27:21;7.30;99.90
36548;DHT22;22551;52.206;4.856;2023-03-25T22:32:24;7.30;99.90
36548;DHT22;22551;52.206;4.856;2023-03-25T22:37:28;7.30;99.90
36548;DHT22;22551;52.206;4.856;2023-03-25T22:42:30;7.40;99.90
36548;DHT22;22551;52.206;4.856;2023-03-25T22:47:32;7.40;99.90
36548;DHT22;22551;52.206;4.856;2023-03-25T22:52:38;7.50;99.90
36548;DHT22;22551;52.206;4.856;2023-03-25T22:57:41;7.50;99.90
36548;DHT22;22551;52.206;4.856;2023-03-25T23:02:45;7.50;99.90
36548;DHT22;22551;52.206;4.856;2023-03-25T23:07:49;7.50;99.90
36548;DHT22;22551;52.206;4.856;2023-03-25T23:12:51;7.60;99.90
36548;DHT22;22551;52.206;4.856;2023-03-25T23:17:55;7.60;99.90
36548;DHT22;22551;52.206;4.856;2023-03-25T23:22:59;7.70;99.90
36548;DHT22;22551;52.206;4.856;2023-03-25T23:28:02;7.70;99.90
36548;DHT22;22551;52.206;4.856;2023-03-25T23:33:05;7.80;99.90
36548;DHT22;22551;52.206;4.856;2023-03-25T23:38:09;7.70;99.90
36548;DHT22;22551;52.206;4.856;2023-03-25T23:43:11;7.80;99.90
36548;DHT22;22551;52.206;4.856;2023-03-25T23:48:13;7.80;99.90
36548;DHT22;22551;52.206;4.856;2023-03-25T23:53:17;7.80;99.90
36548;DHT22;22551;52.206;4.856;2023-03-25T23:58:20;7.80;99.90
